sensor_id;sensor_type;location;lat;lon;timestamp;pressure;altitude;pressure_sealevel;temperature;humidity
46846;BME280;33947;46.804;134.252;2023-04-07T00:01:32;99649.38;;;10.83;64.31
46846;BME280;33947;46.804;134.252;2023-04-07T00:04:36;99656.16;;;10.90;64.21
46846;BME280;33947;46.804;134.252;2023-04-07T00:07:40;99645.34;;;10.52;65.28
46846;BME280;33947;46.804;134.252;2023-04-07T00:10:58;99647.56;;;10.40;65.89
46846;BME280;33947;46.804;134.252;2023-04-07T00:14:03;99628.41;;;10.10;65.62
46846;BME280;33947;46.804;134.252;2023-04-07T00:17:07;99629.03;;;10.17;65.12
46846;BME280;33947;46.804;134.252;2023-04-07T00:20:12;99648.44;;;10.41;65.14
46846;BME280;33947;46.804;134.252;2023-04-07T00:23:16;99639.50;;;10.44;64.15
46846;BME280;33947;46.804;134.252;2023-04-07T00:26:20;99631.59;;;10.18;64.83
46846;BME280;33947;46.804;134.252;2023-04-07T00:29:24;99630.94;;;10.35;64.48
46846;BME280;33947;46.804;134.252;2023-04-07T00:32:28;99633.97;;;10.04;63.22
46846;BME280;33947;46.804;134.252;2023-04-07T00:35:34;99636.41;;;9.62;65.06
46846;BME280;33947;46.804;134.252;2023-04-07T00:38:38;99572.50;;;9.70;64.69
46846;BME280;33947;46.804;134.252;2023-04-07T00:41:42;99632.47;;;10.42;62.88
46846;BME280;33947;46.804;134.252;2023-04-07T00:44:46;99599.47;;;10.48;62.65
46846;BME280;33947;46.804;134.252;2023-04-07T00:47:50;99588.41;;;10.59;61.99
46846;BME280;33947;46.804;134.252;2023-04-07T00:50:55;99606.25;;;10.97;61.39
46846;BME280;33947;46.804;134.252;2023-04-07T00:53:59;99584.56;;;10.87;61.45
46846;BME280;33947;46.804;134.252;2023-04-07T00:57:05;99590.25;;;11.19;59.99
46846;BME280;33947;46.804;134.252;2023-04-07T01:00:10;99620.00;;;11.27;59.31
46846;BME280;33947;46.804;134.252;2023-04-07T01:03:21;99630.06;;;11.40;59.70
46846;BME280;33947;46.804;134.252;2023-04-07T01:06:30;99625.53;;;11.82;57.67
46846;BME280;33947;46.804;134.252;2023-04-07T01:09:41;99617.38;;;11.85;57.73
46846;BME280;33947;46.804;134.252;2023-04-07T01:13:21;99632.34;;;11.87;57.48
46846;BME280;33947;46.804;134.252;2023-04-07T01:16:41;99617.19;;;11.31;57.59
46846;BME280;33947;46.804;134.252;2023-04-07T01:19:58;99614.94;;;11.80;56.96
46846;BME280;33947;46.804;134.252;2023-04-07T01:23:06;99594.75;;;11.17;57.51
46846;BME280;33947;46.804;134.252;2023-04-07T01:29:33;99617.00;;;11.93;55.98
46846;BME280;33947;46.804;134.252;2023-04-07T01:32:42;99620.34;;;11.79;56.53
46846;BME280;33947;46.804;134.252;2023-04-07T01:35:52;99612.72;;;11.90;56.58
46846;BME280;33947;46.804;134.252;2023-04-07T01:38:57;99626.75;;;11.75;55.35
46846;BME280;33947;46.804;134.252;2023-04-07T01:42:05;99632.28;;;12.45;55.41
46846;BME280;33947;46.804;134.252;2023-04-07T01:45:15;99626.06;;;11.88;56.95
46846;BME280;33947;46.804;134.252;2023-04-07T01:48:22;99633.00;;;11.34;57.95
46846;BME280;33947;46.804;134.252;2023-04-07T01:51:29;99628.72;;;11.50;58.37
46846;BME280;33947;46.804;134.252;2023-04-07T01:54:34;99625.44;;;11.83;56.51
46846;BME280;33947;46.804;134.252;2023-04-07T01:57:38;99560.09;;;10.99;56.55
46846;BME280;33947;46.804;134.252;2023-04-07T02:00:50;99605.66;;;10.69;58.29
46846;BME280;33947;46.804;134.252;2023-04-07T02:04:15;99608.91;;;10.97;55.49
46846;BME280;33947;46.804;134.252;2023-04-07T02:10:36;99622.56;;;11.69;57.02
46846;BME280;33947;46.804;134.252;2023-04-07T02:13:41;99626.09;;;12.08;54.64
46846;BME280;33947;46.804;134.252;2023-04-07T02:17:08;99612.91;;;11.85;55.96
46846;BME280;33947;46.804;134.252;2023-04-07T02:20:13;99614.66;;;12.06;55.83
46846;BME280;33947;46.804;134.252;2023-04-07T02:23:19;99608.72;;;11.22;57.21
46846;BME280;33947;46.804;134.252;2023-04-07T02:26:23;99607.78;;;10.61;59.03
46846;BME280;33947;46.804;134.252;2023-04-07T02:29:27;99593.88;;;10.54;59.78
46846;BME280;33947;46.804;134.252;2023-04-07T02:32:32;99577.63;;;10.62;58.96
46846;BME280;33947;46.804;134.252;2023-04-07T02:35:37;99596.50;;;11.18;58.30
46846;BME280;33947;46.804;134.252;2023-04-07T02:38:41;99574.53;;;10.73;58.64
46846;BME280;33947;46.804;134.252;2023-04-07T02:41:45;99608.72;;;10.38;59.94
46846;BME280;33947;46.804;134.252;2023-04-07T02:44:49;99563.88;;;10.09;59.87
46846;BME280;33947;46.804;134.252;2023-04-07T02:47:54;99599.41;;;10.50;60.40
46846;BME280;33947;46.804;134.252;2023-04-07T02:50:58;99593.72;;;11.00;58.62
46846;BME280;33947;46.804;134.252;2023-04-07T02:54:03;99592.84;;;11.40;57.18
46846;BME280;33947;46.804;134.252;2023-04-07T02:57:08;99601.00;;;11.75;56.99
46846;BME280;33947;46.804;134.252;2023-04-07T03:00:14;99593.28;;;11.50;56.46
46846;BME280;33947;46.804;134.252;2023-04-07T03:03:33;99567.94;;;11.03;57.61
46846;BME280;33947;46.804;134.252;2023-04-07T03:06:51;99587.75;;;11.73;56.76
46846;BME280;33947;46.804;134.252;2023-04-07T03:09:57;99577.09;;;11.35;57.02
46846;BME280;33947;46.804;134.252;2023-04-07T03:13:01;99580.50;;;11.77;56.93
46846;BME280;33947;46.804;134.252;2023-04-07T03:16:09;99569.56;;;12.02;56.05
46846;BME280;33947;46.804;134.252;2023-04-07T03:19:27;99566.44;;;11.93;56.28
46846;BME280;33947;46.804;134.252;2023-04-07T03:22:33;99564.81;;;11.90;56.51
46846;BME280;33947;46.804;134.252;2023-04-07T03:25:37;99573.72;;;11.89;56.29
46846;BME280;33947;46.804;134.252;2023-04-07T03:28:41;99566.34;;;11.57;56.48
46846;BME280;33947;46.804;134.252;2023-04-07T03:31:46;99563.09;;;11.89;56.23
46846;BME280;33947;46.804;134.252;2023-04-07T03:34:54;99552.28;;;11.92;56.06
46846;BME280;33947;46.804;134.252;2023-04-07T03:37:59;99563.50;;;11.99;55.38
46846;BME280;33947;46.804;134.252;2023-04-07T03:41:04;99563.78;;;11.93;55.08
46846;BME280;33947;46.804;134.252;2023-04-07T03:44:09;99561.69;;;11.99;54.62
46846;BME280;33947;46.804;134.252;2023-04-07T03:47:15;99556.19;;;12.04;55.01
46846;BME280;33947;46.804;134.252;2023-04-07T03:50:25;99525.53;;;11.95;54.02
46846;BME280;33947;46.804;134.252;2023-04-07T03:53:43;99536.91;;;11.99;55.16
46846;BME280;33947;46.804;134.252;2023-04-07T03:57:13;99542.72;;;12.25;54.34
46846;BME280;33947;46.804;134.252;2023-04-07T04:00:21;99516.41;;;12.19;54.18
46846;BME280;33947;46.804;134.252;2023-04-07T04:03:39;99527.53;;;12.27;53.64
46846;BME280;33947;46.804;134.252;2023-04-07T04:06:56;99515.94;;;12.10;52.61
46846;BME280;33947;46.804;134.252;2023-04-07T04:10:30;99499.03;;;12.11;53.49
46846;BME280;33947;46.804;134.252;2023-04-07T04:13:37;99497.16;;;12.31;52.25
46846;BME280;33947;46.804;134.252;2023-04-07T04:16:42;99480.50;;;12.27;52.02
46846;BME280;33947;46.804;134.252;2023-04-07T04:20:00;99495.16;;;12.36;50.91
46846;BME280;33947;46.804;134.252;2023-04-07T04:23:15;99487.59;;;12.09;52.19
46846;BME280;33947;46.804;134.252;2023-04-07T04:26:22;99490.50;;;12.57;51.50
46846;BME280;33947;46.804;134.252;2023-04-07T04:29:32;99483.69;;;12.69;49.77
46846;BME280;33947;46.804;134.252;2023-04-07T04:32:40;99483.78;;;12.50;50.66
46846;BME280;33947;46.804;134.252;2023-04-07T04:35:45;99475.63;;;12.36;49.43
46846;BME280;33947;46.804;134.252;2023-04-07T04:38:53;99447.13;;;12.20;49.97
46846;BME280;33947;46.804;134.252;2023-04-07T04:41:58;99439.25;;;11.99;51.22
46846;BME280;33947;46.804;134.252;2023-04-07T04:45:09;99423.19;;;12.20;50.65
46846;BME280;33947;46.804;134.252;2023-04-07T04:48:19;99452.81;;;12.30;51.34
46846;BME280;33947;46.804;134.252;2023-04-07T04:51:24;99462.00;;;12.42;50.56
46846;BME280;33947;46.804;134.252;2023-04-07T04:54:43;99472.13;;;12.35;48.19
46846;BME280;33947;46.804;134.252;2023-04-07T04:57:47;99461.06;;;12.08;49.81
46846;BME280;33947;46.804;134.252;2023-04-07T05:00:59;99432.81;;;12.05;50.69
46846;BME280;33947;46.804;134.252;2023-04-07T05:04:24;99431.47;;;11.60;49.60
46846;BME280;33947;46.804;134.252;2023-04-07T05:07:36;99444.59;;;11.99;49.75
46846;BME280;33947;46.804;134.252;2023-04-07T05:10:47;99440.00;;;12.03;48.36
46846;BME280;33947;46.804;134.252;2023-04-07T05:13:57;99436.75;;;11.79;49.78
46846;BME280;33947;46.804;134.252;2023-04-07T05:17:02;99444.69;;;11.98;48.63
46846;BME280;33947;46.804;134.252;2023-04-07T05:20:09;99441.13;;;11.97;49.03
46846;BME280;33947;46.804;134.252;2023-04-07T05:23:16;99445.78;;;11.94;48.72
46846;BME280;33947;46.804;134.252;2023-04-07T05:26:23;99438.00;;;11.89;49.03
46846;BME280;33947;46.804;134.252;2023-04-07T05:29:28;99441.41;;;12.28;48.51
46846;BME280;33947;46.804;134.252;2023-04-07T05:32:33;99411.31;;;12.26;47.44
46846;BME280;33947;46.804;134.252;2023-04-07T05:35:45;99461.38;;;12.19;48.57
46846;BME280;33947;46.804;134.252;2023-04-07T05:38:50;99388.38;;;11.70;49.08
46846;BME280;33947;46.804;134.252;2023-04-07T05:41:55;99427.53;;;12.04;48.38
46846;BME280;33947;46.804;134.252;2023-04-07T05:45:03;99444.31;;;12.06;47.06
46846;BME280;33947;46.804;134.252;2023-04-07T05:48:09;99399.38;;;11.45;45.55
46846;BME280;33947;46.804;134.252;2023-04-07T05:51:18;99454.28;;;11.46;46.12
46846;BME280;33947;46.804;134.252;2023-04-07T05:54:24;99413.78;;;10.64;46.60
46846;BME280;33947;46.804;134.252;2023-04-07T05:57:29;99437.38;;;10.70;46.99
46846;BME280;33947;46.804;134.252;2023-04-07T06:00:45;99438.06;;;10.34;47.30
46846;BME280;33947;46.804;134.252;2023-04-07T06:03:52;99439.94;;;10.32;47.28
46846;BME280;33947;46.804;134.252;2023-04-07T06:07:02;99452.00;;;10.19;48.31
46846;BME280;33947;46.804;134.252;2023-04-07T06:10:07;99441.59;;;10.14;47.84
46846;BME280;33947;46.804;134.252;2023-04-07T06:13:11;99431.38;;;10.25;46.85
46846;BME280;33947;46.804;134.252;2023-04-07T06:16:15;99379.44;;;9.78;47.12
46846;BME280;33947;46.804;134.252;2023-04-07T06:19:21;99427.72;;;9.87;46.54
46846;BME280;33947;46.804;134.252;2023-04-07T06:22:25;99442.78;;;9.64;47.30
46846;BME280;33947;46.804;134.252;2023-04-07T06:25:29;99422.34;;;10.30;44.98
46846;BME280;33947;46.804;134.252;2023-04-07T06:28:35;99436.22;;;10.16;44.83
46846;BME280;33947;46.804;134.252;2023-04-07T06:31:40;99413.13;;;9.76;45.68
46846;BME280;33947;46.804;134.252;2023-04-07T06:34:44;99427.09;;;9.80;45.83
46846;BME280;33947;46.804;134.252;2023-04-07T06:37:48;99422.03;;;9.53;47.17
46846;BME280;33947;46.804;134.252;2023-04-07T06:40:52;99452.16;;;9.50;47.61
46846;BME280;33947;46.804;134.252;2023-04-07T06:43:56;99433.34;;;9.12;48.27
46846;BME280;33947;46.804;134.252;2023-04-07T06:47:01;99459.94;;;9.33;48.17
46846;BME280;33947;46.804;134.252;2023-04-07T06:50:05;99464.06;;;9.40;48.51
46846;BME280;33947;46.804;134.252;2023-04-07T06:53:10;99460.09;;;9.28;49.04
46846;BME280;33947;46.804;134.252;2023-04-07T06:56:15;99475.19;;;9.26;49.52
46846;BME280;33947;46.804;134.252;2023-04-07T06:59:20;99495.75;;;9.19;50.10
46846;BME280;33947;46.804;134.252;2023-04-07T07:02:24;99516.22;;;9.16;50.57
46846;BME280;33947;46.804;134.252;2023-04-07T07:05:29;99517.34;;;9.08;50.71
46846;BME280;33947;46.804;134.252;2023-04-07T07:08:33;99507.19;;;8.97;50.37
46846;BME280;33947;46.804;134.252;2023-04-07T07:11:38;99518.00;;;9.15;49.99
46846;BME280;33947;46.804;134.252;2023-04-07T07:14:43;99531.25;;;9.15;50.41
46846;BME280;33947;46.804;134.252;2023-04-07T07:17:47;99538.72;;;9.27;49.88
46846;BME280;33947;46.804;134.252;2023-04-07T07:20:51;99523.31;;;9.15;50.07
46846;BME280;33947;46.804;134.252;2023-04-07T07:23:56;99543.81;;;9.10;50.45
46846;BME280;33947;46.804;134.252;2023-04-07T07:27:00;99553.06;;;8.98;50.67
46846;BME280;33947;46.804;134.252;2023-04-07T07:30:05;99552.84;;;9.04;50.08
46846;BME280;33947;46.804;134.252;2023-04-07T07:33:09;99497.00;;;8.61;50.63
46846;BME280;33947;46.804;134.252;2023-04-07T07:36:14;99558.75;;;8.87;50.67
46846;BME280;33947;46.804;134.252;2023-04-07T07:39:19;99546.81;;;8.75;51.04
46846;BME280;33947;46.804;134.252;2023-04-07T07:42:23;99562.75;;;8.99;50.80
46846;BME280;33947;46.804;134.252;2023-04-07T07:45:28;99562.16;;;8.91;50.76
46846;BME280;33947;46.804;134.252;2023-04-07T07:48:32;99558.94;;;8.57;50.86
46846;BME280;33947;46.804;134.252;2023-04-07T07:51:36;99542.66;;;8.41;51.56
46846;BME280;33947;46.804;134.252;2023-04-07T07:54:41;99574.16;;;8.49;51.56
46846;BME280;33947;46.804;134.252;2023-04-07T07:57:45;99574.13;;;8.50;51.53
46846;BME280;33947;46.804;134.252;2023-04-07T08:00:49;99588.28;;;8.76;50.31
46846;BME280;33947;46.804;134.252;2023-04-07T08:03:54;99578.47;;;8.53;50.30
46846;BME280;33947;46.804;134.252;2023-04-07T08:06:58;99579.94;;;8.35;50.86
46846;BME280;33947;46.804;134.252;2023-04-07T08:10:03;99584.13;;;8.40;50.41
46846;BME280;33947;46.804;134.252;2023-04-07T08:13:07;99597.59;;;8.33;50.11
46846;BME280;33947;46.804;134.252;2023-04-07T08:16:12;99601.44;;;8.24;49.96
46846;BME280;33947;46.804;134.252;2023-04-07T08:19:17;99607.94;;;8.40;49.04
46846;BME280;33947;46.804;134.252;2023-04-07T08:22:21;99618.41;;;8.45;48.06
46846;BME280;33947;46.804;134.252;2023-04-07T08:25:26;99621.38;;;8.34;47.70
46846;BME280;33947;46.804;134.252;2023-04-07T08:28:30;99626.69;;;8.34;46.26
46846;BME280;33947;46.804;134.252;2023-04-07T08:31:37;99625.72;;;8.37;47.10
46846;BME280;33947;46.804;134.252;2023-04-07T08:34:41;99630.56;;;8.24;46.88
46846;BME280;33947;46.804;134.252;2023-04-07T08:37:46;99644.00;;;8.16;47.00
46846;BME280;33947;46.804;134.252;2023-04-07T08:41:00;99644.00;;;8.16;46.81
46846;BME280;33947;46.804;134.252;2023-04-07T08:44:06;99632.84;;;8.06;47.12
46846;BME280;33947;46.804;134.252;2023-04-07T08:47:12;99662.66;;;8.11;47.62
46846;BME280;33947;46.804;134.252;2023-04-07T08:50:21;99666.59;;;7.98;47.03
46846;BME280;33947;46.804;134.252;2023-04-07T08:53:36;99647.66;;;7.84;47.17
46846;BME280;33947;46.804;134.252;2023-04-07T08:56:44;99672.88;;;7.64;47.99
46846;BME280;33947;46.804;134.252;2023-04-07T08:59:49;99681.53;;;7.39;47.21
46846;BME280;33947;46.804;134.252;2023-04-07T09:02:55;99675.66;;;7.28;48.26
46846;BME280;33947;46.804;134.252;2023-04-07T09:06:00;99683.94;;;7.15;47.21
46846;BME280;33947;46.804;134.252;2023-04-07T09:09:05;99696.59;;;7.01;47.34
46846;BME280;33947;46.804;134.252;2023-04-07T09:12:10;99699.19;;;7.04;46.97
46846;BME280;33947;46.804;134.252;2023-04-07T09:15:15;99680.81;;;6.99;46.89
46846;BME280;33947;46.804;134.252;2023-04-07T09:18:19;99657.56;;;6.79;46.30
46846;BME280;33947;46.804;134.252;2023-04-07T09:21:24;99716.63;;;6.75;44.58
46846;BME280;33947;46.804;134.252;2023-04-07T09:24:31;99694.03;;;6.63;45.35
46846;BME280;33947;46.804;134.252;2023-04-07T09:27:35;99699.16;;;6.69;46.30
46846;BME280;33947;46.804;134.252;2023-04-07T09:30:52;99722.38;;;6.55;43.27
46846;BME280;33947;46.804;134.252;2023-04-07T09:33:57;99707.84;;;6.36;44.19
46846;BME280;33947;46.804;134.252;2023-04-07T09:37:04;99701.19;;;6.20;43.06
46846;BME280;33947;46.804;134.252;2023-04-07T09:40:09;99726.28;;;6.38;42.09
46846;BME280;33947;46.804;134.252;2023-04-07T09:43:17;99728.81;;;6.02;40.17
46846;BME280;33947;46.804;134.252;2023-04-07T09:46:21;99735.75;;;6.06;43.18
46846;BME280;33947;46.804;134.252;2023-04-07T09:49:28;99750.44;;;6.18;42.63
46846;BME280;33947;46.804;134.252;2023-04-07T09:52:52;99736.63;;;6.06;41.60
46846;BME280;33947;46.804;134.252;2023-04-07T09:55:57;99770.00;;;6.07;43.10
46846;BME280;33947;46.804;134.252;2023-04-07T09:59:02;99779.13;;;5.89;44.26
46846;BME280;33947;46.804;134.252;2023-04-07T10:02:07;99780.69;;;5.54;42.12
46846;BME280;33947;46.804;134.252;2023-04-07T10:05:12;99786.53;;;5.70;43.48
46846;BME280;33947;46.804;134.252;2023-04-07T10:08:16;99793.63;;;5.67;43.06
46846;BME280;33947;46.804;134.252;2023-04-07T10:11:21;99791.16;;;5.59;42.95
46846;BME280;33947;46.804;134.252;2023-04-07T10:14:30;99818.28;;;5.64;41.41
46846;BME280;33947;46.804;134.252;2023-04-07T10:17:35;99823.72;;;5.55;40.45
46846;BME280;33947;46.804;134.252;2023-04-07T10:20:41;99826.97;;;5.69;41.80
46846;BME280;33947;46.804;134.252;2023-04-07T10:27:28;99830.06;;;5.41;42.10
46846;BME280;33947;46.804;134.252;2023-04-07T10:30:34;99819.59;;;5.38;42.95
46846;BME280;33947;46.804;134.252;2023-04-07T10:33:57;99853.81;;;5.40;43.20
46846;BME280;33947;46.804;134.252;2023-04-07T10:37:11;99826.25;;;5.07;40.83
46846;BME280;33947;46.804;134.252;2023-04-07T10:43:37;99833.41;;;4.98;41.46
46846;BME280;33947;46.804;134.252;2023-04-07T10:50:20;99852.97;;;4.81;41.68
46846;BME280;33947;46.804;134.252;2023-04-07T10:53:25;99858.53;;;4.59;43.55
46846;BME280;33947;46.804;134.252;2023-04-07T11:03:15;99867.59;;;4.35;42.30
46846;BME280;33947;46.804;134.252;2023-04-07T11:06:20;99858.97;;;4.22;42.44
46846;BME280;33947;46.804;134.252;2023-04-07T11:09:25;99886.09;;;4.27;42.29
46846;BME280;33947;46.804;134.252;2023-04-07T11:12:30;99885.31;;;4.20;42.21
46846;BME280;33947;46.804;134.252;2023-04-07T11:15:35;99895.06;;;4.11;41.63
46846;BME280;33947;46.804;134.252;2023-04-07T11:18:44;99899.31;;;4.23;42.06
46846;BME280;33947;46.804;134.252;2023-04-07T11:21:49;99896.63;;;4.26;42.55
46846;BME280;33947;46.804;134.252;2023-04-07T11:24:53;99904.41;;;4.33;43.07
46846;BME280;33947;46.804;134.252;2023-04-07T11:27:58;99913.22;;;4.29;42.60
46846;BME280;33947;46.804;134.252;2023-04-07T11:31:03;99908.00;;;4.26;42.12
46846;BME280;33947;46.804;134.252;2023-04-07T11:34:10;99899.31;;;4.21;44.07
46846;BME280;33947;46.804;134.252;2023-04-07T11:37:25;99925.59;;;4.21;42.97
46846;BME280;33947;46.804;134.252;2023-04-07T11:40:33;99928.97;;;4.32;43.13
46846;BME280;33947;46.804;134.252;2023-04-07T11:43:40;99941.38;;;4.21;42.68
46846;BME280;33947;46.804;134.252;2023-04-07T11:46:55;99937.91;;;4.17;43.21
46846;BME280;33947;46.804;134.252;2023-04-07T11:50:00;99924.78;;;4.14;44.41
46846;BME280;33947;46.804;134.252;2023-04-07T11:53:05;99922.25;;;4.05;45.70
46846;BME280;33947;46.804;134.252;2023-04-07T11:56:13;99950.19;;;4.18;45.88
46846;BME280;33947;46.804;134.252;2023-04-07T11:59:23;99951.19;;;4.03;46.46
46846;BME280;33947;46.804;134.252;2023-04-07T12:02:32;99951.81;;;4.27;45.26
46846;BME280;33947;46.804;134.252;2023-04-07T12:05:44;99939.78;;;4.06;45.08
46846;BME280;33947;46.804;134.252;2023-04-07T12:08:48;99949.56;;;3.90;45.19
46846;BME280;33947;46.804;134.252;2023-04-07T12:11:52;99954.84;;;3.87;44.97
46846;BME280;33947;46.804;134.252;2023-04-07T12:14:57;99960.88;;;3.95;44.95
46846;BME280;33947;46.804;134.252;2023-04-07T12:18:02;99949.72;;;3.70;44.23
46846;BME280;33947;46.804;134.252;2023-04-07T12:21:06;99963.53;;;3.97;44.11
46846;BME280;33947;46.804;134.252;2023-04-07T12:24:11;99954.06;;;3.74;43.12
46846;BME280;33947;46.804;134.252;2023-04-07T12:27:16;99976.63;;;4.01;43.75
46846;BME280;33947;46.804;134.252;2023-04-07T12:30:23;99985.38;;;4.03;44.23
46846;BME280;33947;46.804;134.252;2023-04-07T12:33:28;100005.69;;;3.80;44.20
46846;BME280;33947;46.804;134.252;2023-04-07T12:36:32;99998.00;;;3.52;43.77
46846;BME280;33947;46.804;134.252;2023-04-07T12:39:37;100017.13;;;3.71;43.05
46846;BME280;33947;46.804;134.252;2023-04-07T12:42:42;99993.72;;;3.37;44.05
46846;BME280;33947;46.804;134.252;2023-04-07T12:45:47;100014.69;;;3.46;43.46
46846;BME280;33947;46.804;134.252;2023-04-07T12:48:52;100013.78;;;3.48;43.93
46846;BME280;33947;46.804;134.252;2023-04-07T12:51:57;100011.97;;;3.57;43.74
46846;BME280;33947;46.804;134.252;2023-04-07T12:55:02;100035.47;;;3.79;43.46
46846;BME280;33947;46.804;134.252;2023-04-07T12:58:06;100014.69;;;3.47;42.35
46846;BME280;33947;46.804;134.252;2023-04-07T13:01:11;100040.84;;;3.63;43.28
46846;BME280;33947;46.804;134.252;2023-04-07T13:04:16;100040.06;;;3.50;43.38
46846;BME280;33947;46.804;134.252;2023-04-07T13:07:20;99981.63;;;3.14;42.67
46846;BME280;33947;46.804;134.252;2023-04-07T13:10:25;100061.09;;;3.38;42.45
46846;BME280;33947;46.804;134.252;2023-04-07T13:13:30;100040.13;;;3.39;42.23
46846;BME280;33947;46.804;134.252;2023-04-07T13:16:34;100055.81;;;3.45;41.38
46846;BME280;33947;46.804;134.252;2023-04-07T13:19:39;100053.28;;;3.31;40.84
46846;BME280;33947;46.804;134.252;2023-04-07T13:22:44;100048.94;;;3.19;41.78
46846;BME280;33947;46.804;134.252;2023-04-07T13:26:02;100007.91;;;3.03;41.06
46846;BME280;33947;46.804;134.252;2023-04-07T13:29:06;100072.56;;;3.19;41.88
46846;BME280;33947;46.804;134.252;2023-04-07T13:32:10;100075.25;;;3.04;41.11
46846;BME280;33947;46.804;134.252;2023-04-07T13:35:18;100065.66;;;3.08;41.34
46846;BME280;33947;46.804;134.252;2023-04-07T13:38:22;100069.91;;;3.32;41.86
46846;BME280;33947;46.804;134.252;2023-04-07T13:41:26;100088.34;;;3.13;41.64
46846;BME280;33947;46.804;134.252;2023-04-07T13:44:32;100072.59;;;3.23;41.99
46846;BME280;33947;46.804;134.252;2023-04-07T13:47:37;100077.78;;;3.35;41.55
46846;BME280;33947;46.804;134.252;2023-04-07T13:50:41;100098.78;;;3.27;42.39
46846;BME280;33947;46.804;134.252;2023-04-07T13:53:46;100094.38;;;3.40;41.40
46846;BME280;33947;46.804;134.252;2023-04-07T13:56:51;100098.78;;;3.32;42.32
46846;BME280;33947;46.804;134.252;2023-04-07T13:59:55;100110.25;;;3.01;41.36
46846;BME280;33947;46.804;134.252;2023-04-07T14:02:59;100112.91;;;2.89;42.42
46846;BME280;33947;46.804;134.252;2023-04-07T14:06:04;100114.66;;;2.98;43.05
46846;BME280;33947;46.804;134.252;2023-04-07T14:09:09;100108.53;;;2.94;41.77
46846;BME280;33947;46.804;134.252;2023-04-07T14:12:13;100115.47;;;3.12;42.52
46846;BME280;33947;46.804;134.252;2023-04-07T14:15:18;100109.34;;;3.18;42.51
46846;BME280;33947;46.804;134.252;2023-04-07T14:18:22;100113.78;;;2.83;42.64
46846;BME280;33947;46.804;134.252;2023-04-07T14:21:26;100104.19;;;2.79;42.72
46846;BME280;33947;46.804;134.252;2023-04-07T14:24:31;100064.94;;;2.29;43.95
46846;BME280;33947;46.804;134.252;2023-04-07T14:27:45;100078.03;;;2.19;43.50
46846;BME280;33947;46.804;134.252;2023-04-07T14:30:49;100082.41;;;2.12;43.39
46846;BME280;33947;46.804;134.252;2023-04-07T14:33:56;100071.91;;;1.88;44.71
46846;BME280;33947;46.804;134.252;2023-04-07T14:37:02;100077.16;;;1.81;44.48
46846;BME280;33947;46.804;134.252;2023-04-07T14:40:07;100093.75;;;1.97;44.60
46846;BME280;33947;46.804;134.252;2023-04-07T14:43:12;100105.97;;;1.99;43.76
46846;BME280;33947;46.804;134.252;2023-04-07T14:46:16;100107.72;;;1.94;44.84
46846;BME280;33947;46.804;134.252;2023-04-07T14:49:20;100049.13;;;1.35;43.99
46846;BME280;33947;46.804;134.252;2023-04-07T14:52:24;100085.81;;;1.46;44.33
46846;BME280;33947;46.804;134.252;2023-04-07T14:55:28;100101.59;;;1.73;44.11
46846;BME280;33947;46.804;134.252;2023-04-07T14:58:34;100103.25;;;1.50;44.97
46846;BME280;33947;46.804;134.252;2023-04-07T15:01:40;100103.19;;;1.29;44.78
46846;BME280;33947;46.804;134.252;2023-04-07T15:04:44;100118.91;;;1.39;45.62
46846;BME280;33947;46.804;134.252;2023-04-07T15:07:49;100119.69;;;1.11;45.74
46846;BME280;33947;46.804;134.252;2023-04-07T15:10:54;100099.59;;;1.07;46.07
46846;BME280;33947;46.804;134.252;2023-04-07T15:13:58;100090.84;;;0.96;46.19
46846;BME280;33947;46.804;134.252;2023-04-07T15:17:03;100102.06;;;0.79;46.46
46846;BME280;33947;46.804;134.252;2023-04-07T15:20:08;100100.31;;;0.75;46.31
46846;BME280;33947;46.804;134.252;2023-04-07T15:23:12;100089.78;;;0.66;46.62
46846;BME280;33947;46.804;134.252;2023-04-07T15:26:20;100026.88;;;0.38;46.18
46846;BME280;33947;46.804;134.252;2023-04-07T15:29:25;100111.53;;;0.60;46.94
46846;BME280;33947;46.804;134.252;2023-04-07T15:32:30;100102.84;;;0.63;46.42
46846;BME280;33947;46.804;134.252;2023-04-07T15:35:34;100100.25;;;0.70;45.78
46846;BME280;33947;46.804;134.252;2023-04-07T15:38:38;100093.19;;;0.54;45.53
46846;BME280;33947;46.804;134.252;2023-04-07T15:41:42;100090.56;;;0.55;46.05
46846;BME280;33947;46.804;134.252;2023-04-07T15:44:49;100090.63;;;0.59;46.72
46846;BME280;33947;46.804;134.252;2023-04-07T15:47:54;100096.75;;;0.68;45.83
46846;BME280;33947;46.804;134.252;2023-04-07T15:50:58;100076.59;;;0.46;46.12
46846;BME280;33947;46.804;134.252;2023-04-07T15:54:02;100083.69;;;0.65;46.96
46846;BME280;33947;46.804;134.252;2023-04-07T15:57:06;100081.06;;;0.61;47.06
46846;BME280;33947;46.804;134.252;2023-04-07T16:00:10;100092.38;;;0.60;47.21
46846;BME280;33947;46.804;134.252;2023-04-07T16:03:16;100087.03;;;0.46;47.11
46846;BME280;33947;46.804;134.252;2023-04-07T16:06:21;100055.56;;;0.25;47.79
46846;BME280;33947;46.804;134.252;2023-04-07T16:09:25;100078.16;;;0.22;47.74
46846;BME280;33947;46.804;134.252;2023-04-07T16:12:31;100053.72;;;0.15;49.23
46846;BME280;33947;46.804;134.252;2023-04-07T16:15:36;100078.06;;;0.11;49.03
46846;BME280;33947;46.804;134.252;2023-04-07T16:18:43;100050.91;;;-0.13;48.98
46846;BME280;33947;46.804;134.252;2023-04-07T16:21:47;100075.31;;;-0.08;49.00
46846;BME280;33947;46.804;134.252;2023-04-07T16:24:51;100012.28;;;-0.48;49.85
46846;BME280;33947;46.804;134.252;2023-04-07T16:27:56;100067.41;;;-0.14;50.28
46846;BME280;33947;46.804;134.252;2023-04-07T16:31:01;100081.44;;;-0.03;49.72